sensor_id;sensor_type;location;lat;lon;timestamp;P1;durP1;ratioP1;P2;durP2;ratioP2
59512;SDS011;45330;51.634;5.562;2022-11-18T00:02:05;13.10;;;3.45;;
59512;SDS011;45330;51.634;5.562;2022-11-18T00:04:30;12.93;;;3.83;;
59512;SDS011;45330;51.634;5.562;2022-11-18T00:06:55;14.10;;;4.03;;
59512;SDS011;45330;51.634;5.562;2022-11-18T00:09:21;15.00;;;3.85;;
59512;SDS011;45330;51.634;5.562;2022-11-18T00:11:46;12.07;;;3.60;;
59512;SDS011;45330;51.634;5.562;2022-11-18T00:14:30;16.08;;;3.75;;
59512;SDS011;45330;51.634;5.562;2022-11-18T00:16:58;13.25;;;3.95;;
59512;SDS011;45330;51.634;5.562;2022-11-18T00:19:28;14.63;;;4.10;;
59512;SDS011;45330;51.634;5.562;2022-11-18T00:21:55;12.00;;;3.75;;
59512;SDS011;45330;51.634;5.562;2022-11-18T00:24:21;15.13;;;4.35;;
59512;SDS011;45330;51.634;5.562;2022-11-18T00:26:47;13.18;;;3.90;;
59512;SDS011;45330;51.634;5.562;2022-11-18T00:29:13;13.95;;;3.90;;
59512;SDS011;45330;51.634;5.562;2022-11-18T00:31:39;14.55;;;3.92;;
59512;SDS011;45330;51.634;5.562;2022-11-18T00:34:04;14.20;;;4.15;;
59512;SDS011;45330;51.634;5.562;2022-11-18T00:36:30;13.13;;;4.20;;
59512;SDS011;45330;51.634;5.562;2022-11-18T00:38:55;14.88;;;4.57;;
59512;SDS011;45330;51.634;5.562;2022-11-18T00:41:21;14.23;;;4.30;;
59512;SDS011;45330;51.634;5.562;2022-11-18T00:43:46;13.77;;;3.97;;
59512;SDS011;45330;51.634;5.562;2022-11-18T00:46:12;11.52;;;4.28;;
59512;SDS011;45330;51.634;5.562;2022-11-18T00:48:38;15.38;;;4.22;;
59512;SDS011;45330;51.634;5.562;2022-11-18T00:51:08;15.18;;;4.30;;
59512;SDS011;45330;51.634;5.562;2022-11-18T00:53:41;15.40;;;4.22;;
59512;SDS011;45330;51.634;5.562;2022-11-18T00:56:07;13.88;;;4.15;;
59512;SDS011;45330;51.634;5.562;2022-11-18T00:58:32;15.20;;;4.47;;
59512;SDS011;45330;51.634;5.562;2022-11-18T01:00:58;15.10;;;3.92;;
59512;SDS011;45330;51.634;5.562;2022-11-18T01:03:24;12.95;;;4.30;;
59512;SDS011;45330;51.634;5.562;2022-11-18T01:05:51;13.57;;;4.53;;
59512;SDS011;45330;51.634;5.562;2022-11-18T01:08:16;15.57;;;5.00;;
59512;SDS011;45330;51.634;5.562;2022-11-18T01:10:43;15.13;;;4.30;;
59512;SDS011;45330;51.634;5.562;2022-11-18T01:13:11;14.65;;;4.38;;
59512;SDS011;45330;51.634;5.562;2022-11-18T01:15:44;16.23;;;4.55;;
59512;SDS011;45330;51.634;5.562;2022-11-18T01:18:18;15.15;;;4.25;;
59512;SDS011;45330;51.634;5.562;2022-11-18T01:20:46;14.93;;;3.83;;
59512;SDS011;45330;51.634;5.562;2022-11-18T01:23:13;16.13;;;4.10;;
59512;SDS011;45330;51.634;5.562;2022-11-18T01:25:40;14.18;;;4.40;;
59512;SDS011;45330;51.634;5.562;2022-11-18T01:28:07;13.52;;;3.78;;
59512;SDS011;45330;51.634;5.562;2022-11-18T01:30:34;13.05;;;3.65;;
59512;SDS011;45330;51.634;5.562;2022-11-18T01:33:00;12.35;;;3.60;;
59512;SDS011;45330;51.634;5.562;2022-11-18T01:35:26;10.05;;;3.80;;
59512;SDS011;45330;51.634;5.562;2022-11-18T01:37:52;11.60;;;4.00;;
59512;SDS011;45330;51.634;5.562;2022-11-18T01:40:17;15.15;;;3.85;;
59512;SDS011;45330;51.634;5.562;2022-11-18T01:42:43;11.88;;;3.42;;
59512;SDS011;45330;51.634;5.562;2022-11-18T01:45:19;13.13;;;3.70;;
59512;SDS011;45330;51.634;5.562;2022-11-18T01:47:51;11.13;;;3.83;;
59512;SDS011;45330;51.634;5.562;2022-11-18T01:50:24;15.73;;;3.70;;
59512;SDS011;45330;51.634;5.562;2022-11-18T01:52:51;14.95;;;3.72;;
59512;SDS011;45330;51.634;5.562;2022-11-18T01:55:23;14.48;;;3.78;;
59512;SDS011;45330;51.634;5.562;2022-11-18T02:00:20;10.82;;;3.10;;
59512;SDS011;45330;51.634;5.562;2022-11-18T02:02:46;12.10;;;3.58;;
59512;SDS011;45330;51.634;5.562;2022-11-18T02:05:12;15.55;;;3.88;;
59512;SDS011;45330;51.634;5.562;2022-11-18T02:07:39;13.20;;;3.50;;
59512;SDS011;45330;51.634;5.562;2022-11-18T02:10:07;7.90;;;2.95;;
59512;SDS011;45330;51.634;5.562;2022-11-18T02:12:34;13.05;;;3.50;;
59512;SDS011;45330;51.634;5.562;2022-11-18T02:15:01;12.02;;;3.50;;
59512;SDS011;45330;51.634;5.562;2022-11-18T02:17:31;8.93;;;2.88;;
59512;SDS011;45330;51.634;5.562;2022-11-18T02:30:51;11.73;;;3.22;;
59512;SDS011;45330;51.634;5.562;2022-11-18T02:33:26;12.48;;;3.65;;
59512;SDS011;45330;51.634;5.562;2022-11-18T02:35:57;15.00;;;3.40;;
59512;SDS011;45330;51.634;5.562;2022-11-18T02:38:30;12.40;;;3.10;;
59512;SDS011;45330;51.634;5.562;2022-11-18T02:41:02;10.95;;;3.08;;
59512;SDS011;45330;51.634;5.562;2022-11-18T02:43:35;15.10;;;3.43;;
59512;SDS011;45330;51.634;5.562;2022-11-18T02:46:06;10.32;;;3.10;;
59512;SDS011;45330;51.634;5.562;2022-11-18T02:48:38;10.88;;;3.17;;
59512;SDS011;45330;51.634;5.562;2022-11-18T02:51:08;12.95;;;3.40;;
59512;SDS011;45330;51.634;5.562;2022-11-18T02:53:37;9.40;;;2.90;;
59512;SDS011;45330;51.634;5.562;2022-11-18T02:56:04;7.68;;;3.10;;
59512;SDS011;45330;51.634;5.562;2022-11-18T02:58:32;9.40;;;2.97;;
59512;SDS011;45330;51.634;5.562;2022-11-18T03:00:58;11.07;;;2.90;;
59512;SDS011;45330;51.634;5.562;2022-11-18T03:03:27;10.50;;;3.05;;
59512;SDS011;45330;51.634;5.562;2022-11-18T03:05:58;10.95;;;3.00;;
59512;SDS011;45330;51.634;5.562;2022-11-18T03:08:33;9.20;;;3.05;;
59512;SDS011;45330;51.634;5.562;2022-11-18T03:11:23;12.98;;;3.47;;
59512;SDS011;45330;51.634;5.562;2022-11-18T03:16:51;10.13;;;2.85;;
59512;SDS011;45330;51.634;5.562;2022-11-18T03:22:46;13.20;;;3.33;;
59512;SDS011;45330;51.634;5.562;2022-11-18T03:30:40;7.82;;;2.90;;
59512;SDS011;45330;51.634;5.562;2022-11-18T03:33:11;8.90;;;2.65;;
59512;SDS011;45330;51.634;5.562;2022-11-18T03:35:43;13.10;;;3.03;;
59512;SDS011;45330;51.634;5.562;2022-11-18T03:38:19;10.07;;;3.25;;
59512;SDS011;45330;51.634;5.562;2022-11-18T03:40:52;8.25;;;2.90;;
59512;SDS011;45330;51.634;5.562;2022-11-18T03:43:22;9.50;;;3.25;;
59512;SDS011;45330;51.634;5.562;2022-11-18T03:45:52;13.02;;;3.38;;
59512;SDS011;45330;51.634;5.562;2022-11-18T03:48:24;13.65;;;3.60;;
59512;SDS011;45330;51.634;5.562;2022-11-18T03:50:59;10.38;;;3.15;;
59512;SDS011;45330;51.634;5.562;2022-11-18T03:53:31;8.45;;;3.20;;
59512;SDS011;45330;51.634;5.562;2022-11-18T03:56:04;12.30;;;3.38;;
59512;SDS011;45330;51.634;5.562;2022-11-18T04:02:19;9.00;;;3.33;;
59512;SDS011;45330;51.634;5.562;2022-11-18T04:04:33;12.30;;;3.50;;
59512;SDS011;45330;51.634;5.562;2022-11-18T04:09:25;13.50;;;3.42;;
59512;SDS011;45330;51.634;5.562;2022-11-18T04:12:01;12.00;;;3.60;;
59512;SDS011;45330;51.634;5.562;2022-11-18T04:14:30;14.70;;;3.55;;
59512;SDS011;45330;51.634;5.562;2022-11-18T04:19:31;11.88;;;4.32;;
59512;SDS011;45330;51.634;5.562;2022-11-18T04:21:57;14.75;;;4.03;;
59512;SDS011;45330;51.634;5.562;2022-11-18T04:24:22;13.13;;;4.22;;
59512;SDS011;45330;51.634;5.562;2022-11-18T04:26:47;14.57;;;3.95;;
59512;SDS011;45330;51.634;5.562;2022-11-18T04:29:13;14.18;;;4.25;;
59512;SDS011;45330;51.634;5.562;2022-11-18T04:31:38;13.88;;;4.13;;
59512;SDS011;45330;51.634;5.562;2022-11-18T04:34:03;13.65;;;4.10;;
59512;SDS011;45330;51.634;5.562;2022-11-18T04:36:29;13.35;;;4.07;;
59512;SDS011;45330;51.634;5.562;2022-11-18T04:38:54;17.15;;;4.80;;
59512;SDS011;45330;51.634;5.562;2022-11-18T04:41:19;15.50;;;4.10;;
59512;SDS011;45330;51.634;5.562;2022-11-18T04:44:05;15.57;;;4.57;;
59512;SDS011;45330;51.634;5.562;2022-11-18T04:46:36;16.15;;;4.30;;
59512;SDS011;45330;51.634;5.562;2022-11-18T04:49:03;12.27;;;4.22;;
59512;SDS011;45330;51.634;5.562;2022-11-18T04:51:28;16.25;;;4.63;;
59512;SDS011;45330;51.634;5.562;2022-11-18T04:53:54;19.08;;;4.47;;
59512;SDS011;45330;51.634;5.562;2022-11-18T04:56:19;14.40;;;4.57;;
59512;SDS011;45330;51.634;5.562;2022-11-18T04:58:44;16.65;;;4.40;;
59512;SDS011;45330;51.634;5.562;2022-11-18T05:01:10;18.90;;;4.50;;
59512;SDS011;45330;51.634;5.562;2022-11-18T05:03:35;14.18;;;4.32;;
59512;SDS011;45330;51.634;5.562;2022-11-18T05:06:00;17.98;;;5.10;;
59512;SDS011;45330;51.634;5.562;2022-11-18T05:08:26;13.88;;;4.47;;
59512;SDS011;45330;51.634;5.562;2022-11-18T05:10:51;18.05;;;4.65;;
59512;SDS011;45330;51.634;5.562;2022-11-18T05:13:36;15.45;;;4.32;;
59512;SDS011;45330;51.634;5.562;2022-11-18T05:16:02;14.75;;;4.55;;
59512;SDS011;45330;51.634;5.562;2022-11-18T05:18:27;13.93;;;4.38;;
59512;SDS011;45330;51.634;5.562;2022-11-18T05:20:53;19.50;;;4.93;;
59512;SDS011;45330;51.634;5.562;2022-11-18T05:23:18;16.02;;;4.93;;
59512;SDS011;45330;51.634;5.562;2022-11-18T05:25:43;14.32;;;4.45;;
59512;SDS011;45330;51.634;5.562;2022-11-18T05:28:09;14.30;;;4.70;;
59512;SDS011;45330;51.634;5.562;2022-11-18T05:30:34;15.85;;;4.25;;
59512;SDS011;45330;51.634;5.562;2022-11-18T05:32:59;14.75;;;4.40;;
59512;SDS011;45330;51.634;5.562;2022-11-18T05:35:25;15.15;;;4.90;;
59512;SDS011;45330;51.634;5.562;2022-11-18T05:37:50;14.13;;;4.60;;
59512;SDS011;45330;51.634;5.562;2022-11-18T05:40:15;16.30;;;4.60;;
59512;SDS011;45330;51.634;5.562;2022-11-18T05:42:41;15.25;;;4.53;;
59512;SDS011;45330;51.634;5.562;2022-11-18T05:45:25;15.50;;;4.40;;
59512;SDS011;45330;51.634;5.562;2022-11-18T05:47:50;15.15;;;4.65;;
59512;SDS011;45330;51.634;5.562;2022-11-18T05:50:25;17.42;;;4.60;;
59512;SDS011;45330;51.634;5.562;2022-11-18T05:52:50;16.95;;;4.90;;
59512;SDS011;45330;51.634;5.562;2022-11-18T05:55:16;19.75;;;5.00;;
59512;SDS011;45330;51.634;5.562;2022-11-18T05:57:43;17.60;;;5.13;;
59512;SDS011;45330;51.634;5.562;2022-11-18T06:00:09;17.38;;;5.28;;
59512;SDS011;45330;51.634;5.562;2022-11-18T06:02:35;17.42;;;5.00;;
59512;SDS011;45330;51.634;5.562;2022-11-18T06:05:01;18.65;;;5.20;;
59512;SDS011;45330;51.634;5.562;2022-11-18T06:07:29;18.60;;;5.40;;
59512;SDS011;45330;51.634;5.562;2022-11-18T06:09:59;15.00;;;4.88;;
59512;SDS011;45330;51.634;5.562;2022-11-18T06:12:28;16.48;;;5.35;;
59512;SDS011;45330;51.634;5.562;2022-11-18T06:15:09;22.48;;;5.53;;
59512;SDS011;45330;51.634;5.562;2022-11-18T06:17:47;19.33;;;5.80;;
59512;SDS011;45330;51.634;5.562;2022-11-18T06:20:17;20.58;;;5.57;;
59512;SDS011;45330;51.634;5.562;2022-11-18T06:22:45;22.00;;;7.25;;
59512;SDS011;45330;51.634;5.562;2022-11-18T06:25:12;20.40;;;6.32;;
59512;SDS011;45330;51.634;5.562;2022-11-18T06:27:38;22.95;;;6.05;;
59512;SDS011;45330;51.634;5.562;2022-11-18T06:30:03;19.63;;;5.70;;
59512;SDS011;45330;51.634;5.562;2022-11-18T06:32:29;17.80;;;5.82;;
59512;SDS011;45330;51.634;5.562;2022-11-18T06:34:55;20.90;;;6.22;;
59512;SDS011;45330;51.634;5.562;2022-11-18T06:37:20;18.35;;;5.85;;
59512;SDS011;45330;51.634;5.562;2022-11-18T06:39:45;22.15;;;6.03;;
59512;SDS011;45330;51.634;5.562;2022-11-18T06:42:11;18.13;;;5.60;;
59512;SDS011;45330;51.634;5.562;2022-11-18T06:44:56;19.70;;;6.68;;
59512;SDS011;45330;51.634;5.562;2022-11-18T06:47:22;18.38;;;5.97;;
59512;SDS011;45330;51.634;5.562;2022-11-18T06:49:47;21.00;;;6.22;;
59512;SDS011;45330;51.634;5.562;2022-11-18T06:52:12;21.48;;;6.45;;
59512;SDS011;45330;51.634;5.562;2022-11-18T06:54:38;18.90;;;5.75;;
59512;SDS011;45330;51.634;5.562;2022-11-18T06:57:03;18.83;;;6.07;;
59512;SDS011;45330;51.634;5.562;2022-11-18T06:59:28;22.55;;;6.47;;
59512;SDS011;45330;51.634;5.562;2022-11-18T07:01:54;21.77;;;6.82;;
59512;SDS011;45330;51.634;5.562;2022-11-18T07:04:19;21.55;;;6.80;;
59512;SDS011;45330;51.634;5.562;2022-11-18T07:06:45;23.73;;;7.13;;
59512;SDS011;45330;51.634;5.562;2022-11-18T07:09:10;20.85;;;6.50;;
59512;SDS011;45330;51.634;5.562;2022-11-18T07:11:35;19.83;;;6.55;;
59512;SDS011;45330;51.634;5.562;2022-11-18T07:14:04;19.88;;;6.85;;
59512;SDS011;45330;51.634;5.562;2022-11-18T07:16:29;20.38;;;7.25;;
59512;SDS011;45330;51.634;5.562;2022-11-18T07:18:54;20.88;;;6.95;;
59512;SDS011;45330;51.634;5.562;2022-11-18T07:21:24;22.45;;;7.30;;
59512;SDS011;45330;51.634;5.562;2022-11-18T07:23:51;22.92;;;7.10;;
59512;SDS011;45330;51.634;5.562;2022-11-18T07:26:17;22.17;;;7.43;;
59512;SDS011;45330;51.634;5.562;2022-11-18T07:28:43;20.77;;;7.30;;
59512;SDS011;45330;51.634;5.562;2022-11-18T07:31:10;21.70;;;7.78;;
59512;SDS011;45330;51.634;5.562;2022-11-18T07:33:37;20.92;;;7.45;;
59512;SDS011;45330;51.634;5.562;2022-11-18T07:36:10;21.45;;;7.57;;
59512;SDS011;45330;51.634;5.562;2022-11-18T07:38:38;23.20;;;7.75;;
59512;SDS011;45330;51.634;5.562;2022-11-18T07:43:34;22.73;;;7.35;;
59512;SDS011;45330;51.634;5.562;2022-11-18T07:46:07;21.65;;;7.88;;
59512;SDS011;45330;51.634;5.562;2022-11-18T07:48:36;19.80;;;7.25;;
59512;SDS011;45330;51.634;5.562;2022-11-18T07:51:01;23.50;;;7.53;;
59512;SDS011;45330;51.634;5.562;2022-11-18T07:53:29;24.10;;;8.10;;
59512;SDS011;45330;51.634;5.562;2022-11-18T07:55:55;27.48;;;9.07;;
59512;SDS011;45330;51.634;5.562;2022-11-18T07:58:20;22.00;;;7.53;;
59512;SDS011;45330;51.634;5.562;2022-11-18T08:00:45;23.58;;;7.80;;
59512;SDS011;45330;51.634;5.562;2022-11-18T08:03:11;23.00;;;8.20;;
59512;SDS011;45330;51.634;5.562;2022-11-18T08:05:36;22.23;;;8.40;;
59512;SDS011;45330;51.634;5.562;2022-11-18T08:08:01;22.60;;;8.00;;
59512;SDS011;45330;51.634;5.562;2022-11-18T08:10:27;23.02;;;8.57;;
59512;SDS011;45330;51.634;5.562;2022-11-18T08:12:52;24.42;;;8.23;;
59512;SDS011;45330;51.634;5.562;2022-11-18T08:15:18;22.33;;;8.27;;
59512;SDS011;45330;51.634;5.562;2022-11-18T08:17:43;20.98;;;8.15;;
59512;SDS011;45330;51.634;5.562;2022-11-18T08:20:08;23.75;;;8.07;;
59512;SDS011;45330;51.634;5.562;2022-11-18T08:22:34;24.50;;;8.43;;
59512;SDS011;45330;51.634;5.562;2022-11-18T08:25:00;26.95;;;9.13;;
59512;SDS011;45330;51.634;5.562;2022-11-18T08:27:25;23.23;;;8.77;;
59512;SDS011;45330;51.634;5.562;2022-11-18T08:29:50;25.70;;;11.55;;
59512;SDS011;45330;51.634;5.562;2022-11-18T08:32:16;24.10;;;9.68;;
59512;SDS011;45330;51.634;5.562;2022-11-18T08:34:41;22.10;;;9.15;;
59512;SDS011;45330;51.634;5.562;2022-11-18T08:37:06;25.58;;;9.57;;
59512;SDS011;45330;51.634;5.562;2022-11-18T08:39:32;21.83;;;9.10;;
59512;SDS011;45330;51.634;5.562;2022-11-18T08:41:57;25.10;;;9.13;;
59512;SDS011;45330;51.634;5.562;2022-11-18T08:44:22;25.25;;;8.80;;
59512;SDS011;45330;51.634;5.562;2022-11-18T08:46:48;24.13;;;9.13;;
59512;SDS011;45330;51.634;5.562;2022-11-18T08:49:13;21.80;;;8.40;;
59512;SDS011;45330;51.634;5.562;2022-11-18T08:51:39;22.15;;;8.43;;
59512;SDS011;45330;51.634;5.562;2022-11-18T08:54:04;22.90;;;8.80;;
59512;SDS011;45330;51.634;5.562;2022-11-18T08:56:29;23.83;;;8.43;;
59512;SDS011;45330;51.634;5.562;2022-11-18T08:58:55;25.42;;;9.07;;
59512;SDS011;45330;51.634;5.562;2022-11-18T09:01:21;21.58;;;8.43;;
59512;SDS011;45330;51.634;5.562;2022-11-18T09:03:47;23.55;;;8.27;;
59512;SDS011;45330;51.634;5.562;2022-11-18T09:06:16;23.35;;;8.07;;
59512;SDS011;45330;51.634;5.562;2022-11-18T09:08:47;22.58;;;7.93;;
59512;SDS011;45330;51.634;5.562;2022-11-18T09:11:13;21.63;;;7.38;;
59512;SDS011;45330;51.634;5.562;2022-11-18T09:13:41;21.63;;;7.35;;
59512;SDS011;45330;51.634;5.562;2022-11-18T09:16:06;21.10;;;7.20;;
59512;SDS011;45330;51.634;5.562;2022-11-18T09:18:33;20.05;;;6.70;;
59512;SDS011;45330;51.634;5.562;2022-11-18T09:21:00;19.88;;;6.57;;
59512;SDS011;45330;51.634;5.562;2022-11-18T09:23:27;18.10;;;6.78;;
59512;SDS011;45330;51.634;5.562;2022-11-18T09:25:57;23.25;;;7.45;;
59512;SDS011;45330;51.634;5.562;2022-11-18T09:28:23;20.93;;;7.17;;
59512;SDS011;45330;51.634;5.562;2022-11-18T09:30:49;21.63;;;7.28;;
59512;SDS011;45330;51.634;5.562;2022-11-18T09:33:14;17.30;;;6.82;;
59512;SDS011;45330;51.634;5.562;2022-11-18T09:35:41;24.95;;;7.45;;
59512;SDS011;45330;51.634;5.562;2022-11-18T09:38:07;19.70;;;7.22;;
59512;SDS011;45330;51.634;5.562;2022-11-18T09:40:33;22.33;;;7.07;;
59512;SDS011;45330;51.634;5.562;2022-11-18T09:43:17;20.00;;;7.03;;
59512;SDS011;45330;51.634;5.562;2022-11-18T09:45:48;19.98;;;7.32;;
59512;SDS011;45330;51.634;5.562;2022-11-18T09:48:23;20.17;;;7.43;;
59512;SDS011;45330;51.634;5.562;2022-11-18T09:51:11;22.05;;;7.30;;
59512;SDS011;45330;51.634;5.562;2022-11-18T09:53:38;19.90;;;6.72;;
59512;SDS011;45330;51.634;5.562;2022-11-18T09:56:10;19.67;;;6.90;;
59512;SDS011;45330;51.634;5.562;2022-11-18T09:58:39;19.55;;;6.43;;
59512;SDS011;45330;51.634;5.562;2022-11-18T10:01:12;18.80;;;6.50;;
59512;SDS011;45330;51.634;5.562;2022-11-18T10:03:41;17.70;;;6.32;;
59512;SDS011;45330;51.634;5.562;2022-11-18T10:08:43;17.50;;;6.15;;
59512;SDS011;45330;51.634;5.562;2022-11-18T10:11:20;22.33;;;6.63;;
59512;SDS011;45330;51.634;5.562;2022-11-18T10:16:48;20.67;;;6.57;;
59512;SDS011;45330;51.634;5.562;2022-11-18T10:19:39;19.70;;;6.43;;
59512;SDS011;45330;51.634;5.562;2022-11-18T10:22:20;17.55;;;5.18;;
59512;SDS011;45330;51.634;5.562;2022-11-18T10:24:52;16.02;;;5.00;;
59512;SDS011;45330;51.634;5.562;2022-11-18T10:27:19;13.27;;;4.95;;
59512;SDS011;45330;51.634;5.562;2022-11-18T10:29:51;16.73;;;4.90;;
59512;SDS011;45330;51.634;5.562;2022-11-18T10:32:19;18.70;;;5.97;;
59512;SDS011;45330;51.634;5.562;2022-11-18T10:34:48;18.58;;;5.55;;
59512;SDS011;45330;51.634;5.562;2022-11-18T10:37:31;15.52;;;5.00;;
59512;SDS011;45330;51.634;5.562;2022-11-18T10:39:59;16.42;;;4.57;;
59512;SDS011;45330;51.634;5.562;2022-11-18T10:42:27;16.42;;;4.53;;
59512;SDS011;45330;51.634;5.562;2022-11-18T10:50:46;14.00;;;4.30;;
59512;SDS011;45330;51.634;5.562;2022-11-18T10:56:01;14.50;;;4.18;;
59512;SDS011;45330;51.634;5.562;2022-11-18T10:58:33;13.25;;;4.10;;
59512;SDS011;45330;51.634;5.562;2022-11-18T11:01:13;15.35;;;4.10;;
59512;SDS011;45330;51.634;5.562;2022-11-18T11:03:50;15.20;;;3.50;;
59512;SDS011;45330;51.634;5.562;2022-11-18T11:08:54;13.02;;;4.03;;
59512;SDS011;45330;51.634;5.562;2022-11-18T11:11:39;14.70;;;3.88;;
59512;SDS011;45330;51.634;5.562;2022-11-18T11:14:25;11.95;;;3.55;;
59512;SDS011;45330;51.634;5.562;2022-11-18T11:17:21;12.95;;;3.25;;
59512;SDS011;45330;51.634;5.562;2022-11-18T11:22:44;12.55;;;3.22;;
59512;SDS011;45330;51.634;5.562;2022-11-18T11:25:13;11.95;;;3.60;;
59512;SDS011;45330;51.634;5.562;2022-11-18T11:28:15;13.60;;;3.50;;
59512;SDS011;45330;51.634;5.562;2022-11-18T11:30:54;11.68;;;3.47;;
59512;SDS011;45330;51.634;5.562;2022-11-18T11:38:54;12.15;;;3.30;;
59512;SDS011;45330;51.634;5.562;2022-11-18T11:41:29;13.20;;;3.40;;
59512;SDS011;45330;51.634;5.562;2022-11-18T11:49:52;14.70;;;3.42;;
59512;SDS011;45330;51.634;5.562;2022-11-18T12:06:09;13.57;;;3.65;;
59512;SDS011;45330;51.634;5.562;2022-11-18T12:08:35;13.52;;;3.65;;
59512;SDS011;45330;51.634;5.562;2022-11-18T12:11:05;13.15;;;3.80;;
59512;SDS011;45330;51.634;5.562;2022-11-18T12:19:02;14.25;;;3.65;;
59512;SDS011;45330;51.634;5.562;2022-11-18T12:26:45;14.48;;;3.72;;
59512;SDS011;45330;51.634;5.562;2022-11-18T12:31:47;13.70;;;3.75;;
59512;SDS011;45330;51.634;5.562;2022-11-18T12:36:44;14.50;;;3.72;;
59512;SDS011;45330;51.634;5.562;2022-11-18T12:41:54;12.80;;;3.65;;
59512;SDS011;45330;51.634;5.562;2022-11-18T12:44:39;15.88;;;4.20;;
59512;SDS011;45330;51.634;5.562;2022-11-18T12:47:10;10.18;;;3.60;;
59512;SDS011;45330;51.634;5.562;2022-11-18T12:52:06;13.05;;;3.80;;
59512;SDS011;45330;51.634;5.562;2022-11-18T12:54:52;10.32;;;3.55;;
59512;SDS011;45330;51.634;5.562;2022-11-18T12:57:20;13.30;;;3.70;;
59512;SDS011;45330;51.634;5.562;2022-11-18T12:59:47;15.65;;;4.05;;
59512;SDS011;45330;51.634;5.562;2022-11-18T13:02:29;14.55;;;3.83;;
59512;SDS011;45330;51.634;5.562;2022-11-18T13:07:27;12.73;;;4.15;;
59512;SDS011;45330;51.634;5.562;2022-11-18T13:10:19;13.60;;;3.72;;
59512;SDS011;45330;51.634;5.562;2022-11-18T13:12:47;15.18;;;3.95;;
59512;SDS011;45330;51.634;5.562;2022-11-18T13:15:14;10.80;;;3.80;;
59512;SDS011;45330;51.634;5.562;2022-11-18T13:18:05;13.80;;;3.90;;
59512;SDS011;45330;51.634;5.562;2022-11-18T13:20:41;14.75;;;3.97;;
59512;SDS011;45330;51.634;5.562;2022-11-18T13:25:51;14.30;;;4.15;;
59512;SDS011;45330;51.634;5.562;2022-11-18T13:28:23;15.35;;;3.90;;
59512;SDS011;45330;51.634;5.562;2022-11-18T13:31:24;15.10;;;3.90;;
59512;SDS011;45330;51.634;5.562;2022-11-18T13:34:10;13.23;;;3.75;;
59512;SDS011;45330;51.634;5.562;2022-11-18T13:36:42;14.75;;;3.47;;
59512;SDS011;45330;51.634;5.562;2022-11-18T13:39:17;14.63;;;3.60;;
59512;SDS011;45330;51.634;5.562;2022-11-18T13:44:54;15.13;;;3.92;;
59512;SDS011;45330;51.634;5.562;2022-11-18T13:55:33;12.45;;;3.72;;
59512;SDS011;45330;51.634;5.562;2022-11-18T13:58:50;12.63;;;4.07;;
59512;SDS011;45330;51.634;5.562;2022-11-18T14:03:53;13.20;;;3.88;;
59512;SDS011;45330;51.634;5.562;2022-11-18T14:06:28;15.23;;;4.50;;
59512;SDS011;45330;51.634;5.562;2022-11-18T14:11:43;14.27;;;4.13;;
59512;SDS011;45330;51.634;5.562;2022-11-18T14:14:10;11.98;;;3.85;;
59512;SDS011;45330;51.634;5.562;2022-11-18T14:16:39;14.43;;;3.78;;
59512;SDS011;45330;51.634;5.562;2022-11-18T14:19:05;14.02;;;4.85;;
59512;SDS011;45330;51.634;5.562;2022-11-18T14:21:48;12.88;;;4.30;;
59512;SDS011;45330;51.634;5.562;2022-11-18T14:24:14;18.05;;;4.90;;
59512;SDS011;45330;51.634;5.562;2022-11-18T14:26:39;13.57;;;4.18;;
59512;SDS011;45330;51.634;5.562;2022-11-18T14:29:15;11.00;;;3.67;;
59512;SDS011;45330;51.634;5.562;2022-11-18T14:32:01;12.68;;;4.18;;
59512;SDS011;45330;51.634;5.562;2022-11-18T14:34:35;12.35;;;3.95;;
59512;SDS011;45330;51.634;5.562;2022-11-18T14:37:00;13.75;;;3.83;;
59512;SDS011;45330;51.634;5.562;2022-11-18T14:39:28;10.20;;;3.78;;
59512;SDS011;45330;51.634;5.562;2022-11-18T14:41:55;13.27;;;4.30;;
59512;SDS011;45330;51.634;5.562;2022-11-18T14:44:22;15.25;;;3.97;;
59512;SDS011;45330;51.634;5.562;2022-11-18T14:46:50;16.48;;;4.38;;
59512;SDS011;45330;51.634;5.562;2022-11-18T14:49:20;18.42;;;4.00;;
59512;SDS011;45330;51.634;5.562;2022-11-18T14:51:48;10.93;;;3.60;;
59512;SDS011;45330;51.634;5.562;2022-11-18T14:54:15;16.27;;;4.25;;
59512;SDS011;45330;51.634;5.562;2022-11-18T14:56:41;14.10;;;4.53;;
59512;SDS011;45330;51.634;5.562;2022-11-18T14:59:13;12.73;;;3.90;;
59512;SDS011;45330;51.634;5.562;2022-11-18T15:01:40;11.48;;;3.65;;
59512;SDS011;45330;51.634;5.562;2022-11-18T15:04:06;13.45;;;3.90;;
59512;SDS011;45330;51.634;5.562;2022-11-18T15:06:32;11.73;;;3.78;;
59512;SDS011;45330;51.634;5.562;2022-11-18T15:08:58;16.48;;;4.40;;
59512;SDS011;45330;51.634;5.562;2022-11-18T15:11:23;11.77;;;4.10;;
59512;SDS011;45330;51.634;5.562;2022-11-18T15:13:49;14.68;;;4.15;;
59512;SDS011;45330;51.634;5.562;2022-11-18T15:16:15;12.90;;;4.32;;
59512;SDS011;45330;51.634;5.562;2022-11-18T15:18:46;11.70;;;4.30;;
59512;SDS011;45330;51.634;5.562;2022-11-18T15:21:13;17.50;;;5.18;;
59512;SDS011;45330;51.634;5.562;2022-11-18T15:23:39;14.57;;;4.40;;
59512;SDS011;45330;51.634;5.562;2022-11-18T15:28:42;17.25;;;5.22;;
59512;SDS011;45330;51.634;5.562;2022-11-18T15:31:08;16.67;;;4.78;;
59512;SDS011;45330;51.634;5.562;2022-11-18T15:33:33;17.52;;;5.35;;
59512;SDS011;45330;51.634;5.562;2022-11-18T15:35:58;16.02;;;5.53;;
59512;SDS011;45330;51.634;5.562;2022-11-18T15:38:24;15.73;;;4.50;;
59512;SDS011;45330;51.634;5.562;2022-11-18T15:40:49;12.32;;;4.53;;
59512;SDS011;45330;51.634;5.562;2022-11-18T15:43:14;14.77;;;5.15;;
59512;SDS011;45330;51.634;5.562;2022-11-18T15:45:41;15.35;;;5.13;;
59512;SDS011;45330;51.634;5.562;2022-11-18T15:48:07;15.63;;;5.35;;
59512;SDS011;45330;51.634;5.562;2022-11-18T15:50:32;13.88;;;4.32;;
59512;SDS011;45330;51.634;5.562;2022-11-18T15:52:58;11.73;;;4.10;;
59512;SDS011;45330;51.634;5.562;2022-11-18T15:55:23;13.30;;;4.40;;
59512;SDS011;45330;51.634;5.562;2022-11-18T15:57:48;13.30;;;4.65;;
59512;SDS011;45330;51.634;5.562;2022-11-18T16:00:14;10.95;;;4.07;;
59512;SDS011;45330;51.634;5.562;2022-11-18T16:02:40;13.82;;;4.40;;
59512;SDS011;45330;51.634;5.562;2022-11-18T16:05:05;12.82;;;4.53;;
59512;SDS011;45330;51.634;5.562;2022-11-18T16:07:31;16.52;;;4.47;;
59512;SDS011;45330;51.634;5.562;2022-11-18T16:09:56;15.77;;;4.93;;
59512;SDS011;45330;51.634;5.562;2022-11-18T16:12:51;14.15;;;4.93;;
59512;SDS011;45330;51.634;5.562;2022-11-18T16:15:16;14.63;;;5.10;;
59512;SDS011;45330;51.634;5.562;2022-11-18T16:18:01;15.20;;;5.32;;
59512;SDS011;45330;51.634;5.562;2022-11-18T16:20:27;14.07;;;4.97;;
59512;SDS011;45330;51.634;5.562;2022-11-18T16:22:54;16.52;;;5.30;;
59512;SDS011;45330;51.634;5.562;2022-11-18T16:25:20;16.73;;;5.60;;
59512;SDS011;45330;51.634;5.562;2022-11-18T16:27:46;16.38;;;5.80;;
59512;SDS011;45330;51.634;5.562;2022-11-18T16:30:11;15.95;;;5.80;;
59512;SDS011;45330;51.634;5.562;2022-11-18T16:32:58;19.10;;;6.05;;
59512;SDS011;45330;51.634;5.562;2022-11-18T16:35:24;18.88;;;6.90;;
59512;SDS011;45330;51.634;5.562;2022-11-18T16:37:50;20.10;;;7.40;;
59512;SDS011;45330;51.634;5.562;2022-11-18T16:40:15;17.58;;;7.03;;
59512;SDS011;45330;51.634;5.562;2022-11-18T16:42:41;20.80;;;7.28;;
59512;SDS011;45330;51.634;5.562;2022-11-18T16:45:06;19.80;;;7.47;;
59512;SDS011;45330;51.634;5.562;2022-11-18T16:47:32;19.75;;;7.43;;
59512;SDS011;45330;51.634;5.562;2022-11-18T16:49:57;20.30;;;7.63;;
59512;SDS011;45330;51.634;5.562;2022-11-18T16:52:23;19.35;;;7.30;;
59512;SDS011;45330;51.634;5.562;2022-11-18T16:54:48;19.58;;;7.47;;